Aviation Digital Data Service (ADDS)

Output produced by METARs form (0633 UTC 08 July 2015)
found at http://aviationweather.gov/adds/metars/
 
KJAX 080537Z 0806/0906 VRB03KT P6SM SCT250 
     FM080800 00000KT 4SM BR FEW250 
     FM081300 17006KT P6SM SCT250 
     FM082000 14010G15KT P6SM VCTS SCT040CB 
     FM082300 13006KT P6SM SCT250